sensor_id;sensor_type;location;lat;lon;timestamp;temperature;humidity
40085;DHT22;25786;51.504;7.344;2023-03-20T00:01:11;10.70;82.20
40085;DHT22;25786;51.504;7.344;2023-03-20T00:03:37;10.70;81.70
40085;DHT22;25786;51.504;7.344;2023-03-20T00:06:03;10.70;81.90
40085;DHT22;25786;51.504;7.344;2023-03-20T00:08:28;10.60;82.20
40085;DHT22;25786;51.504;7.344;2023-03-20T00:10:56;10.60;82.20
40085;DHT22;25786;51.504;7.344;2023-03-20T00:13:25;10.60;82.00
40085;DHT22;25786;51.504;7.344;2023-03-20T00:15:54;10.60;82.20
40085;DHT22;25786;51.504;7.344;2023-03-20T00:18:20;10.50;81.80
40085;DHT22;25786;51.504;7.344;2023-03-20T00:20:50;10.50;81.40
40085;DHT22;25786;51.504;7.344;2023-03-20T00:23:16;10.60;81.10
40085;DHT22;25786;51.504;7.344;2023-03-20T00:25:43;10.50;81.10
40085;DHT22;25786;51.504;7.344;2023-03-20T00:30:53;10.50;81.40
40085;DHT22;25786;51.504;7.344;2023-03-20T00:33:18;10.50;81.80
40085;DHT22;25786;51.504;7.344;2023-03-20T00:35:44;10.50;82.00
40085;DHT22;25786;51.504;7.344;2023-03-20T00:38:09;10.40;82.30
40085;DHT22;25786;51.504;7.344;2023-03-20T00:40:35;10.30;82.20
40085;DHT22;25786;51.504;7.344;2023-03-20T00:43:01;10.30;82.10
40085;DHT22;25786;51.504;7.344;2023-03-20T00:45:27;10.30;81.90
40085;DHT22;25786;51.504;7.344;2023-03-20T00:47:53;10.20;82.00
40085;DHT22;25786;51.504;7.344;2023-03-20T00:50:21;10.20;81.60
40085;DHT22;25786;51.504;7.344;2023-03-20T00:52:48;10.30;81.30
40085;DHT22;25786;51.504;7.344;2023-03-20T00:55:14;10.30;81.30
40085;DHT22;25786;51.504;7.344;2023-03-20T00:57:43;10.20;80.90
40085;DHT22;25786;51.504;7.344;2023-03-20T01:02:38;10.00;81.60
40085;DHT22;25786;51.504;7.344;2023-03-20T01:05:04;10.00;81.80
40085;DHT22;25786;51.504;7.344;2023-03-20T01:07:30;10.10;81.10
40085;DHT22;25786;51.504;7.344;2023-03-20T01:09:55;10.00;81.60
40085;DHT22;25786;51.504;7.344;2023-03-20T01:12:21;10.00;81.20
40085;DHT22;25786;51.504;7.344;2023-03-20T01:17:19;10.00;81.50
40085;DHT22;25786;51.504;7.344;2023-03-20T01:19:45;10.00;81.40
40085;DHT22;25786;51.504;7.344;2023-03-20T01:22:10;10.10;80.90
40085;DHT22;25786;51.504;7.344;2023-03-20T01:24:38;10.00;81.00
40085;DHT22;25786;51.504;7.344;2023-03-20T01:27:04;10.00;81.30
40085;DHT22;25786;51.504;7.344;2023-03-20T01:29:35;10.00;81.50
40085;DHT22;25786;51.504;7.344;2023-03-20T01:32:01;10.10;81.40
40085;DHT22;25786;51.504;7.344;2023-03-20T01:34:26;10.00;81.40
40085;DHT22;25786;51.504;7.344;2023-03-20T01:36:52;10.00;81.40
40085;DHT22;25786;51.504;7.344;2023-03-20T01:39:22;10.00;81.80
40085;DHT22;25786;51.504;7.344;2023-03-20T01:41:51;10.00;81.70
40085;DHT22;25786;51.504;7.344;2023-03-20T01:44:28;9.80;82.00
40085;DHT22;25786;51.504;7.344;2023-03-20T01:46:54;9.90;82.20
40085;DHT22;25786;51.504;7.344;2023-03-20T01:51:46;9.80;82.10
40085;DHT22;25786;51.504;7.344;2023-03-20T01:54:13;9.80;81.90
40085;DHT22;25786;51.504;7.344;2023-03-20T01:56:42;9.80;82.00
40085;DHT22;25786;51.504;7.344;2023-03-20T01:59:09;9.80;81.80
40085;DHT22;25786;51.504;7.344;2023-03-20T02:01:36;9.90;81.50
40085;DHT22;25786;51.504;7.344;2023-03-20T02:04:03;9.90;81.20
40085;DHT22;25786;51.504;7.344;2023-03-20T02:06:33;9.90;81.40
40085;DHT22;25786;51.504;7.344;2023-03-20T02:09:00;9.90;81.60
40085;DHT22;25786;51.504;7.344;2023-03-20T02:11:26;9.90;81.30
40085;DHT22;25786;51.504;7.344;2023-03-20T02:13:52;9.90;81.40
40085;DHT22;25786;51.504;7.344;2023-03-20T02:16:18;9.90;81.70
40085;DHT22;25786;51.504;7.344;2023-03-20T02:18:45;9.90;81.60
40085;DHT22;25786;51.504;7.344;2023-03-20T02:21:29;9.80;81.70
40085;DHT22;25786;51.504;7.344;2023-03-20T02:39:44;9.60;81.40
40085;DHT22;25786;51.504;7.344;2023-03-20T02:45:03;9.60;81.20
40085;DHT22;25786;51.504;7.344;2023-03-20T02:52:40;9.50;81.50
40085;DHT22;25786;51.504;7.344;2023-03-20T02:55:23;9.50;80.90
40085;DHT22;25786;51.504;7.344;2023-03-20T03:00:23;9.60;79.30
40085;DHT22;25786;51.504;7.344;2023-03-20T03:02:52;9.60;79.10
40085;DHT22;25786;51.504;7.344;2023-03-20T03:05:22;9.50;79.40
40085;DHT22;25786;51.504;7.344;2023-03-20T03:07:50;9.60;78.70
40085;DHT22;25786;51.504;7.344;2023-03-20T03:10:19;9.50;78.00
40085;DHT22;25786;51.504;7.344;2023-03-20T03:12:47;9.40;78.60
40085;DHT22;25786;51.504;7.344;2023-03-20T03:15:27;9.30;78.70
40085;DHT22;25786;51.504;7.344;2023-03-20T03:17:54;9.30;78.80
40085;DHT22;25786;51.504;7.344;2023-03-20T03:20:23;9.30;78.60
40085;DHT22;25786;51.504;7.344;2023-03-20T03:22:50;9.30;77.80
40085;DHT22;25786;51.504;7.344;2023-03-20T03:25:15;9.30;77.90
40085;DHT22;25786;51.504;7.344;2023-03-20T03:27:42;9.20;78.00
40085;DHT22;25786;51.504;7.344;2023-03-20T03:30:15;9.10;78.20
40085;DHT22;25786;51.504;7.344;2023-03-20T03:35:43;9.30;77.70
40085;DHT22;25786;51.504;7.344;2023-03-20T03:38:21;9.20;77.70
40085;DHT22;25786;51.504;7.344;2023-03-20T03:40:51;9.10;78.10
40085;DHT22;25786;51.504;7.344;2023-03-20T03:43:38;9.00;78.00
40085;DHT22;25786;51.504;7.344;2023-03-20T03:46:08;9.00;78.30
40085;DHT22;25786;51.504;7.344;2023-03-20T03:48:35;9.10;78.30
40085;DHT22;25786;51.504;7.344;2023-03-20T03:51:03;9.00;77.90
40085;DHT22;25786;51.504;7.344;2023-03-20T03:53:31;9.00;78.10
40085;DHT22;25786;51.504;7.344;2023-03-20T03:56:00;9.00;78.20
40085;DHT22;25786;51.504;7.344;2023-03-20T03:58:30;9.00;78.00
40085;DHT22;25786;51.504;7.344;2023-03-20T04:00:57;8.90;78.70
40085;DHT22;25786;51.504;7.344;2023-03-20T04:03:26;8.90;78.60
40085;DHT22;25786;51.504;7.344;2023-03-20T04:05:53;8.90;79.00
40085;DHT22;25786;51.504;7.344;2023-03-20T04:08:19;9.00;78.40
40085;DHT22;25786;51.504;7.344;2023-03-20T04:10:45;9.00;78.70
40085;DHT22;25786;51.504;7.344;2023-03-20T04:13:10;9.00;79.00
40085;DHT22;25786;51.504;7.344;2023-03-20T04:15:36;9.00;78.40
40085;DHT22;25786;51.504;7.344;2023-03-20T04:18:03;9.00;78.30
40085;DHT22;25786;51.504;7.344;2023-03-20T04:20:28;9.00;78.20
40085;DHT22;25786;51.504;7.344;2023-03-20T04:22:53;9.10;78.10
40085;DHT22;25786;51.504;7.344;2023-03-20T04:25:20;9.10;78.40
40085;DHT22;25786;51.504;7.344;2023-03-20T04:27:46;9.10;78.70
40085;DHT22;25786;51.504;7.344;2023-03-20T04:30:11;9.10;78.60
40085;DHT22;25786;51.504;7.344;2023-03-20T04:32:37;9.10;79.20
40085;DHT22;25786;51.504;7.344;2023-03-20T04:35:02;9.00;79.70
40085;DHT22;25786;51.504;7.344;2023-03-20T04:37:28;8.90;80.10
40085;DHT22;25786;51.504;7.344;2023-03-20T04:39:54;9.00;80.60
40085;DHT22;25786;51.504;7.344;2023-03-20T04:42:19;9.00;80.60
40085;DHT22;25786;51.504;7.344;2023-03-20T04:44:45;9.00;80.50
40085;DHT22;25786;51.504;7.344;2023-03-20T04:47:10;9.00;80.70
40085;DHT22;25786;51.504;7.344;2023-03-20T04:49:35;8.90;81.00
40085;DHT22;25786;51.504;7.344;2023-03-20T04:52:01;8.80;81.10
40085;DHT22;25786;51.504;7.344;2023-03-20T04:54:26;8.70;81.30
40085;DHT22;25786;51.504;7.344;2023-03-20T04:56:52;8.70;81.70
40085;DHT22;25786;51.504;7.344;2023-03-20T04:59:17;8.80;81.50
40085;DHT22;25786;51.504;7.344;2023-03-20T05:01:43;8.80;81.70
40085;DHT22;25786;51.504;7.344;2023-03-20T05:04:08;8.70;81.90
40085;DHT22;25786;51.504;7.344;2023-03-20T05:06:34;8.60;81.70
40085;DHT22;25786;51.504;7.344;2023-03-20T05:09:00;8.60;81.90
40085;DHT22;25786;51.504;7.344;2023-03-20T05:11:26;8.60;82.10
40085;DHT22;25786;51.504;7.344;2023-03-20T05:13:51;8.50;82.10
40085;DHT22;25786;51.504;7.344;2023-03-20T05:16:17;8.50;82.10
40085;DHT22;25786;51.504;7.344;2023-03-20T05:18:42;8.60;81.70
40085;DHT22;25786;51.504;7.344;2023-03-20T05:21:08;8.50;82.00
40085;DHT22;25786;51.504;7.344;2023-03-20T05:23:33;8.50;82.40
40085;DHT22;25786;51.504;7.344;2023-03-20T05:25:59;8.50;82.10
40085;DHT22;25786;51.504;7.344;2023-03-20T05:28:25;8.50;82.40
40085;DHT22;25786;51.504;7.344;2023-03-20T05:30:50;8.40;82.70
40085;DHT22;25786;51.504;7.344;2023-03-20T05:33:16;8.40;82.80
40085;DHT22;25786;51.504;7.344;2023-03-20T05:35:41;8.40;83.20
40085;DHT22;25786;51.504;7.344;2023-03-20T05:38:07;8.50;83.00
40085;DHT22;25786;51.504;7.344;2023-03-20T05:40:32;8.50;82.70
40085;DHT22;25786;51.504;7.344;2023-03-20T05:42:58;8.50;82.60
40085;DHT22;25786;51.504;7.344;2023-03-20T05:45:23;8.50;82.70
40085;DHT22;25786;51.504;7.344;2023-03-20T05:47:48;8.50;82.50
40085;DHT22;25786;51.504;7.344;2023-03-20T05:50:14;8.50;82.60
40085;DHT22;25786;51.504;7.344;2023-03-20T05:52:40;8.50;82.70
40085;DHT22;25786;51.504;7.344;2023-03-20T05:55:06;8.50;82.70
40085;DHT22;25786;51.504;7.344;2023-03-20T05:57:31;8.50;82.80
40085;DHT22;25786;51.504;7.344;2023-03-20T05:59:57;8.50;82.60
40085;DHT22;25786;51.504;7.344;2023-03-20T06:02:22;8.50;82.90
40085;DHT22;25786;51.504;7.344;2023-03-20T06:04:48;8.50;82.50
40085;DHT22;25786;51.504;7.344;2023-03-20T06:07:13;8.40;82.40
40085;DHT22;25786;51.504;7.344;2023-03-20T06:09:39;8.40;82.40
40085;DHT22;25786;51.504;7.344;2023-03-20T06:12:04;8.30;82.60
40085;DHT22;25786;51.504;7.344;2023-03-20T06:14:30;8.30;82.80
40085;DHT22;25786;51.504;7.344;2023-03-20T06:16:55;8.30;82.40
40085;DHT22;25786;51.504;7.344;2023-03-20T06:19:21;8.40;82.40
40085;DHT22;25786;51.504;7.344;2023-03-20T06:21:47;8.30;82.50
40085;DHT22;25786;51.504;7.344;2023-03-20T06:24:13;8.30;82.60
40085;DHT22;25786;51.504;7.344;2023-03-20T06:26:39;8.40;82.80
40085;DHT22;25786;51.504;7.344;2023-03-20T06:29:04;8.50;82.50
40085;DHT22;25786;51.504;7.344;2023-03-20T06:31:30;8.50;82.00
40085;DHT22;25786;51.504;7.344;2023-03-20T06:33:56;8.60;81.90
40085;DHT22;25786;51.504;7.344;2023-03-20T06:36:21;8.50;81.90
40085;DHT22;25786;51.504;7.344;2023-03-20T06:38:47;8.50;81.90
40085;DHT22;25786;51.504;7.344;2023-03-20T06:41:13;8.60;81.50
40085;DHT22;25786;51.504;7.344;2023-03-20T06:43:38;8.50;81.10
40085;DHT22;25786;51.504;7.344;2023-03-20T06:46:04;8.60;81.20
40085;DHT22;25786;51.504;7.344;2023-03-20T06:48:30;8.50;81.10
40085;DHT22;25786;51.504;7.344;2023-03-20T06:50:55;8.60;81.10
40085;DHT22;25786;51.504;7.344;2023-03-20T06:53:21;8.60;80.90
40085;DHT22;25786;51.504;7.344;2023-03-20T06:55:47;8.60;80.80
40085;DHT22;25786;51.504;7.344;2023-03-20T06:58:12;8.50;81.00
40085;DHT22;25786;51.504;7.344;2023-03-20T07:00:38;8.60;80.30
40085;DHT22;25786;51.504;7.344;2023-03-20T07:03:04;8.70;80.40
40085;DHT22;25786;51.504;7.344;2023-03-20T07:05:29;8.70;79.80
40085;DHT22;25786;51.504;7.344;2023-03-20T07:07:55;8.70;79.80
40085;DHT22;25786;51.504;7.344;2023-03-20T07:10:20;8.70;79.80
40085;DHT22;25786;51.504;7.344;2023-03-20T07:12:46;8.60;79.40
40085;DHT22;25786;51.504;7.344;2023-03-20T07:15:11;8.60;79.60
40085;DHT22;25786;51.504;7.344;2023-03-20T07:17:36;8.70;79.20
40085;DHT22;25786;51.504;7.344;2023-03-20T07:20:04;8.70;79.30
40085;DHT22;25786;51.504;7.344;2023-03-20T07:22:40;8.80;79.00
40085;DHT22;25786;51.504;7.344;2023-03-20T07:25:22;8.90;78.90
40085;DHT22;25786;51.504;7.344;2023-03-20T07:28:01;9.00;78.50
40085;DHT22;25786;51.504;7.344;2023-03-20T07:30:43;8.90;78.30
40085;DHT22;25786;51.504;7.344;2023-03-20T07:33:08;9.00;78.30
40085;DHT22;25786;51.504;7.344;2023-03-20T07:35:34;9.00;78.00
40085;DHT22;25786;51.504;7.344;2023-03-20T07:38:00;9.00;77.80
40085;DHT22;25786;51.504;7.344;2023-03-20T07:40:25;9.00;77.90
40085;DHT22;25786;51.504;7.344;2023-03-20T07:42:51;9.00;77.80
40085;DHT22;25786;51.504;7.344;2023-03-20T07:45:17;9.00;77.40
40085;DHT22;25786;51.504;7.344;2023-03-20T07:47:43;9.10;77.50
40085;DHT22;25786;51.504;7.344;2023-03-20T07:50:08;9.10;77.30
40085;DHT22;25786;51.504;7.344;2023-03-20T07:52:34;9.20;77.10
40085;DHT22;25786;51.504;7.344;2023-03-20T07:55:03;9.30;77.00
40085;DHT22;25786;51.504;7.344;2023-03-20T07:57:49;9.30;76.20
40085;DHT22;25786;51.504;7.344;2023-03-20T08:00:23;9.50;75.70
40085;DHT22;25786;51.504;7.344;2023-03-20T08:02:57;9.50;74.80
40085;DHT22;25786;51.504;7.344;2023-03-20T08:05:28;9.60;74.90
40085;DHT22;25786;51.504;7.344;2023-03-20T08:08:00;9.60;74.90
40085;DHT22;25786;51.504;7.344;2023-03-20T08:10:37;9.70;74.20
40085;DHT22;25786;51.504;7.344;2023-03-20T08:13:03;9.70;73.90
40085;DHT22;25786;51.504;7.344;2023-03-20T08:15:28;9.70;73.40
40085;DHT22;25786;51.504;7.344;2023-03-20T08:17:54;9.70;73.80
40085;DHT22;25786;51.504;7.344;2023-03-20T08:20:22;9.80;73.30
40085;DHT22;25786;51.504;7.344;2023-03-20T08:22:47;9.70;73.50
40085;DHT22;25786;51.504;7.344;2023-03-20T08:25:13;9.60;74.10
40085;DHT22;25786;51.504;7.344;2023-03-20T08:27:39;9.60;73.90
40085;DHT22;25786;51.504;7.344;2023-03-20T08:30:05;9.60;73.70
40085;DHT22;25786;51.504;7.344;2023-03-20T08:32:31;9.60;73.30
40085;DHT22;25786;51.504;7.344;2023-03-20T08:35:11;9.60;73.10
40085;DHT22;25786;51.504;7.344;2023-03-20T08:37:36;9.70;73.60
40085;DHT22;25786;51.504;7.344;2023-03-20T08:40:48;9.70;73.30
40085;DHT22;25786;51.504;7.344;2023-03-20T08:43:07;9.90;72.80
40085;DHT22;25786;51.504;7.344;2023-03-20T08:45:32;10.00;73.00
40085;DHT22;25786;51.504;7.344;2023-03-20T08:50:31;10.10;72.50
40085;DHT22;25786;51.504;7.344;2023-03-20T08:53:00;10.30;71.80
40085;DHT22;25786;51.504;7.344;2023-03-20T08:55:29;10.40;71.20
40085;DHT22;25786;51.504;7.344;2023-03-20T08:57:57;10.60;70.30
40085;DHT22;25786;51.504;7.344;2023-03-20T09:00:32;10.60;69.70
40085;DHT22;25786;51.504;7.344;2023-03-20T09:03:01;10.50;69.00
40085;DHT22;25786;51.504;7.344;2023-03-20T09:05:45;10.50;68.90
40085;DHT22;25786;51.504;7.344;2023-03-20T09:08:12;10.40;68.00
40085;DHT22;25786;51.504;7.344;2023-03-20T09:10:40;10.40;67.80
40085;DHT22;25786;51.504;7.344;2023-03-20T09:13:06;10.40;68.30
40085;DHT22;25786;51.504;7.344;2023-03-20T09:16:06;10.30;68.10
40085;DHT22;25786;51.504;7.344;2023-03-20T09:18:52;10.10;67.60
40085;DHT22;25786;51.504;7.344;2023-03-20T09:21:38;10.10;67.60
40085;DHT22;25786;51.504;7.344;2023-03-20T09:24:37;10.20;67.40
40085;DHT22;25786;51.504;7.344;2023-03-20T09:27:04;10.20;67.70
40085;DHT22;25786;51.504;7.344;2023-03-20T09:29:29;10.20;67.60
40085;DHT22;25786;51.504;7.344;2023-03-20T09:31:55;10.10;67.90
40085;DHT22;25786;51.504;7.344;2023-03-20T09:34:21;10.10;67.50
40085;DHT22;25786;51.504;7.344;2023-03-20T09:36:46;10.10;67.30
40085;DHT22;25786;51.504;7.344;2023-03-20T09:39:12;10.20;67.80
40085;DHT22;25786;51.504;7.344;2023-03-20T09:41:37;10.20;67.20
40085;DHT22;25786;51.504;7.344;2023-03-20T09:46:48;10.20;67.80
40085;DHT22;25786;51.504;7.344;2023-03-20T09:52:31;10.10;67.60
40085;DHT22;25786;51.504;7.344;2023-03-20T09:55:03;10.30;67.80
40085;DHT22;25786;51.504;7.344;2023-03-20T09:57:33;10.30;66.90
40085;DHT22;25786;51.504;7.344;2023-03-20T10:00:00;10.40;66.50
40085;DHT22;25786;51.504;7.344;2023-03-20T10:04:55;10.50;67.80
40085;DHT22;25786;51.504;7.344;2023-03-20T10:07:21;10.40;67.30
40085;DHT22;25786;51.504;7.344;2023-03-20T10:09:49;10.40;66.40
40085;DHT22;25786;51.504;7.344;2023-03-20T10:19:51;10.50;66.20
40085;DHT22;25786;51.504;7.344;2023-03-20T10:25:07;10.50;65.90
40085;DHT22;25786;51.504;7.344;2023-03-20T10:27:39;10.60;64.50
40085;DHT22;25786;51.504;7.344;2023-03-20T10:30:25;10.60;65.80
40085;DHT22;25786;51.504;7.344;2023-03-20T10:35:41;10.60;65.60
40085;DHT22;25786;51.504;7.344;2023-03-20T10:38:30;10.60;66.20
40085;DHT22;25786;51.504;7.344;2023-03-20T10:40:57;10.70;66.10
40085;DHT22;25786;51.504;7.344;2023-03-20T10:43:25;10.70;63.60
40085;DHT22;25786;51.504;7.344;2023-03-20T10:45:54;10.60;62.80
40085;DHT22;25786;51.504;7.344;2023-03-20T10:50:59;10.50;61.50
40085;DHT22;25786;51.504;7.344;2023-03-20T10:55:52;10.60;61.20
40085;DHT22;25786;51.504;7.344;2023-03-20T10:58:20;10.60;61.20
40085;DHT22;25786;51.504;7.344;2023-03-20T11:00:46;10.70;61.80
40085;DHT22;25786;51.504;7.344;2023-03-20T11:03:16;10.80;60.80
40085;DHT22;25786;51.504;7.344;2023-03-20T11:05:44;10.90;61.00
40085;DHT22;25786;51.504;7.344;2023-03-20T11:08:11;10.80;61.30
40085;DHT22;25786;51.504;7.344;2023-03-20T11:10:37;10.90;61.70
40085;DHT22;25786;51.504;7.344;2023-03-20T11:13:13;10.90;60.80
40085;DHT22;25786;51.504;7.344;2023-03-20T11:15:41;10.80;61.00
40085;DHT22;25786;51.504;7.344;2023-03-20T11:18:08;10.80;60.60
40085;DHT22;25786;51.504;7.344;2023-03-20T11:20:42;11.00;61.30
40085;DHT22;25786;51.504;7.344;2023-03-20T11:23:10;11.00;60.70
40085;DHT22;25786;51.504;7.344;2023-03-20T11:25:43;11.00;60.60
40085;DHT22;25786;51.504;7.344;2023-03-20T11:28:24;11.00;60.70
40085;DHT22;25786;51.504;7.344;2023-03-20T11:30:55;11.00;60.90
40085;DHT22;25786;51.504;7.344;2023-03-20T11:33:22;10.80;61.80
40085;DHT22;25786;51.504;7.344;2023-03-20T11:35:51;10.80;62.50
40085;DHT22;25786;51.504;7.344;2023-03-20T11:38:18;10.80;60.70
40085;DHT22;25786;51.504;7.344;2023-03-20T11:40:44;10.90;60.70
40085;DHT22;25786;51.504;7.344;2023-03-20T11:43:17;11.00;61.10
40085;DHT22;25786;51.504;7.344;2023-03-20T11:48:39;11.20;60.50
40085;DHT22;25786;51.504;7.344;2023-03-20T11:51:23;11.30;60.30
40085;DHT22;25786;51.504;7.344;2023-03-20T11:59:47;11.40;59.50
40085;DHT22;25786;51.504;7.344;2023-03-20T12:02:17;11.30;59.60
40085;DHT22;25786;51.504;7.344;2023-03-20T12:04:58;11.20;59.40
40085;DHT22;25786;51.504;7.344;2023-03-20T12:13:54;11.20;60.10
40085;DHT22;25786;51.504;7.344;2023-03-20T12:16:25;11.20;60.60
40085;DHT22;25786;51.504;7.344;2023-03-20T12:18:55;11.10;61.30
40085;DHT22;25786;51.504;7.344;2023-03-20T12:21:23;11.10;61.50
40085;DHT22;25786;51.504;7.344;2023-03-20T12:26:50;11.10;61.90
40085;DHT22;25786;51.504;7.344;2023-03-20T12:29:28;11.00;63.90
40085;DHT22;25786;51.504;7.344;2023-03-20T12:31:57;10.70;63.90
40085;DHT22;25786;51.504;7.344;2023-03-20T12:34:26;10.70;63.80
40085;DHT22;25786;51.504;7.344;2023-03-20T12:36:56;10.70;64.40
40085;DHT22;25786;51.504;7.344;2023-03-20T12:39:30;10.70;64.30
40085;DHT22;25786;51.504;7.344;2023-03-20T12:44:50;10.70;63.90
40085;DHT22;25786;51.504;7.344;2023-03-20T12:58:54;10.80;63.60
40085;DHT22;25786;51.504;7.344;2023-03-20T13:04:38;10.70;66.40
40085;DHT22;25786;51.504;7.344;2023-03-20T13:07:13;10.50;67.60
40085;DHT22;25786;51.504;7.344;2023-03-20T13:09:47;10.40;67.70
40085;DHT22;25786;51.504;7.344;2023-03-20T13:26:40;10.50;66.00
40085;DHT22;25786;51.504;7.344;2023-03-20T13:38:36;10.30;66.40
40085;DHT22;25786;51.504;7.344;2023-03-20T13:41:13;10.40;66.90
40085;DHT22;25786;51.504;7.344;2023-03-20T13:44:06;10.30;66.70
40085;DHT22;25786;51.504;7.344;2023-03-20T13:46:36;10.30;66.40
40085;DHT22;25786;51.504;7.344;2023-03-20T13:49:13;10.30;66.80
40085;DHT22;25786;51.504;7.344;2023-03-20T13:51:46;10.30;68.00
40085;DHT22;25786;51.504;7.344;2023-03-20T14:04:49;10.50;68.40
40085;DHT22;25786;51.504;7.344;2023-03-20T14:07:29;10.50;67.30
40085;DHT22;25786;51.504;7.344;2023-03-20T14:09:55;10.50;66.70
40085;DHT22;25786;51.504;7.344;2023-03-20T14:12:25;10.50;67.10
40085;DHT22;25786;51.504;7.344;2023-03-20T14:33:00;10.40;69.60
40085;DHT22;25786;51.504;7.344;2023-03-20T14:35:29;10.50;69.50
40085;DHT22;25786;51.504;7.344;2023-03-20T14:46:16;10.40;68.10
40085;DHT22;25786;51.504;7.344;2023-03-20T14:48:46;10.40;68.40
40085;DHT22;25786;51.504;7.344;2023-03-20T14:53:49;10.40;67.60
40085;DHT22;25786;51.504;7.344;2023-03-20T14:56:19;10.50;67.70
40085;DHT22;25786;51.504;7.344;2023-03-20T14:58:54;10.50;68.50
40085;DHT22;25786;51.504;7.344;2023-03-20T15:03:50;10.50;69.00
40085;DHT22;25786;51.504;7.344;2023-03-20T15:06:20;10.60;68.40
40085;DHT22;25786;51.504;7.344;2023-03-20T15:08:48;10.60;68.40
40085;DHT22;25786;51.504;7.344;2023-03-20T15:11:15;10.60;68.80
40085;DHT22;25786;51.504;7.344;2023-03-20T15:13:40;10.70;69.00
40085;DHT22;25786;51.504;7.344;2023-03-20T15:16:08;10.60;69.30
40085;DHT22;25786;51.504;7.344;2023-03-20T15:18:38;10.60;69.90
40085;DHT22;25786;51.504;7.344;2023-03-20T15:21:15;10.70;69.10
40085;DHT22;25786;51.504;7.344;2023-03-20T15:23:44;10.70;68.50
40085;DHT22;25786;51.504;7.344;2023-03-20T15:26:14;10.70;68.00
40085;DHT22;25786;51.504;7.344;2023-03-20T15:28:39;10.70;67.90
40085;DHT22;25786;51.504;7.344;2023-03-20T15:31:11;10.60;68.50
40085;DHT22;25786;51.504;7.344;2023-03-20T15:33:43;10.50;68.60
40085;DHT22;25786;51.504;7.344;2023-03-20T15:36:10;10.40;69.00
40085;DHT22;25786;51.504;7.344;2023-03-20T15:38:39;10.40;69.60
40085;DHT22;25786;51.504;7.344;2023-03-20T15:41:05;10.30;69.40
40085;DHT22;25786;51.504;7.344;2023-03-20T15:43:30;10.30;69.90
40085;DHT22;25786;51.504;7.344;2023-03-20T15:45:57;10.40;70.30
40085;DHT22;25786;51.504;7.344;2023-03-20T15:48:23;10.40;70.90
40085;DHT22;25786;51.504;7.344;2023-03-20T15:50:57;10.40;72.60
40085;DHT22;25786;51.504;7.344;2023-03-20T15:53:31;10.30;73.30
40085;DHT22;25786;51.504;7.344;2023-03-20T15:56:05;10.30;74.80
40085;DHT22;25786;51.504;7.344;2023-03-20T15:58:31;10.40;75.40
40085;DHT22;25786;51.504;7.344;2023-03-20T16:00:56;10.30;75.70
40085;DHT22;25786;51.504;7.344;2023-03-20T16:03:22;10.20;76.20
40085;DHT22;25786;51.504;7.344;2023-03-20T16:05:48;10.20;75.10
40085;DHT22;25786;51.504;7.344;2023-03-20T16:10:46;10.20;75.80
40085;DHT22;25786;51.504;7.344;2023-03-20T16:13:12;10.30;75.70
40085;DHT22;25786;51.504;7.344;2023-03-20T16:15:38;10.30;75.80
40085;DHT22;25786;51.504;7.344;2023-03-20T16:18:04;10.30;76.60
40085;DHT22;25786;51.504;7.344;2023-03-20T16:20:35;10.30;75.50
40085;DHT22;25786;51.504;7.344;2023-03-20T16:23:03;10.30;75.50
40085;DHT22;25786;51.504;7.344;2023-03-20T16:25:30;10.20;75.90
40085;DHT22;25786;51.504;7.344;2023-03-20T16:27:55;10.30;75.00
40085;DHT22;25786;51.504;7.344;2023-03-20T16:30:22;10.30;75.60
40085;DHT22;25786;51.504;7.344;2023-03-20T16:32:49;10.30;75.40
40085;DHT22;25786;51.504;7.344;2023-03-20T16:35:21;10.30;75.00
40085;DHT22;25786;51.504;7.344;2023-03-20T16:37:54;10.20;75.00
40085;DHT22;25786;51.504;7.344;2023-03-20T16:40:33;10.20;75.00
40085;DHT22;25786;51.504;7.344;2023-03-20T16:43:06;10.20;77.00
40085;DHT22;25786;51.504;7.344;2023-03-20T16:45:36;10.20;76.30
40085;DHT22;25786;51.504;7.344;2023-03-20T16:50:34;10.00;77.30
40085;DHT22;25786;51.504;7.344;2023-03-20T16:53:00;10.00;78.00
40085;DHT22;25786;51.504;7.344;2023-03-20T16:55:29;10.10;78.50
40085;DHT22;25786;51.504;7.344;2023-03-20T16:57:59;10.00;78.00
40085;DHT22;25786;51.504;7.344;2023-03-20T17:00:27;10.00;78.80
40085;DHT22;25786;51.504;7.344;2023-03-20T17:02:57;10.00;78.40
40085;DHT22;25786;51.504;7.344;2023-03-20T17:05:24;9.90;78.40
40085;DHT22;25786;51.504;7.344;2023-03-20T17:08:02;9.90;78.00
40085;DHT22;25786;51.504;7.344;2023-03-20T17:10:28;9.80;78.10
40085;DHT22;25786;51.504;7.344;2023-03-20T17:12:53;9.80;78.40
40085;DHT22;25786;51.504;7.344;2023-03-20T17:15:20;9.80;77.60
40085;DHT22;25786;51.504;7.344;2023-03-20T17:17:46;9.80;79.10
40085;DHT22;25786;51.504;7.344;2023-03-20T17:20:20;9.80;77.80
40085;DHT22;25786;51.504;7.344;2023-03-20T17:22:45;9.70;78.60
40085;DHT22;25786;51.504;7.344;2023-03-20T17:25:11;9.70;79.60
40085;DHT22;25786;51.504;7.344;2023-03-20T17:27:37;9.80;79.30
40085;DHT22;25786;51.504;7.344;2023-03-20T17:30:04;9.80;78.40
40085;DHT22;25786;51.504;7.344;2023-03-20T17:32:30;9.70;78.70
40085;DHT22;25786;51.504;7.344;2023-03-20T17:34:57;9.70;79.00
40085;DHT22;25786;51.504;7.344;2023-03-20T17:37:26;9.80;78.70
40085;DHT22;25786;51.504;7.344;2023-03-20T17:39:52;9.80;78.40
40085;DHT22;25786;51.504;7.344;2023-03-20T17:42:21;9.70;79.10
40085;DHT22;25786;51.504;7.344;2023-03-20T17:44:50;9.70;78.80
40085;DHT22;25786;51.504;7.344;2023-03-20T17:47:17;9.90;78.70
40085;DHT22;25786;51.504;7.344;2023-03-20T17:49:43;9.80;78.50
40085;DHT22;25786;51.504;7.344;2023-03-20T17:52:11;9.70;79.00
40085;DHT22;25786;51.504;7.344;2023-03-20T17:54:37;9.70;78.90
40085;DHT22;25786;51.504;7.344;2023-03-20T17:57:03;9.70;79.50
40085;DHT22;25786;51.504;7.344;2023-03-20T17:59:28;9.60;79.70
40085;DHT22;25786;51.504;7.344;2023-03-20T18:01:55;9.60;79.50
40085;DHT22;25786;51.504;7.344;2023-03-20T18:04:21;9.60;79.90
40085;DHT22;25786;51.504;7.344;2023-03-20T18:06:48;9.60;80.10
40085;DHT22;25786;51.504;7.344;2023-03-20T18:09:14;9.60;80.40
40085;DHT22;25786;51.504;7.344;2023-03-20T18:11:39;9.60;80.20
40085;DHT22;25786;51.504;7.344;2023-03-20T18:14:05;9.60;80.20
40085;DHT22;25786;51.504;7.344;2023-03-20T18:16:32;9.60;80.50
40085;DHT22;25786;51.504;7.344;2023-03-20T18:18:58;9.60;80.50
40085;DHT22;25786;51.504;7.344;2023-03-20T18:21:25;9.60;80.10
40085;DHT22;25786;51.504;7.344;2023-03-20T18:23:51;9.60;79.90
40085;DHT22;25786;51.504;7.344;2023-03-20T18:26:20;9.60;80.30
40085;DHT22;25786;51.504;7.344;2023-03-20T18:28:46;9.60;80.30
40085;DHT22;25786;51.504;7.344;2023-03-20T18:31:13;9.60;80.00
40085;DHT22;25786;51.504;7.344;2023-03-20T18:33:46;9.70;80.00
40085;DHT22;25786;51.504;7.344;2023-03-20T18:36:19;9.80;79.60
40085;DHT22;25786;51.504;7.344;2023-03-20T18:38:45;9.70;79.50
40085;DHT22;25786;51.504;7.344;2023-03-20T18:41:10;9.70;79.20
40085;DHT22;25786;51.504;7.344;2023-03-20T18:43:36;9.70;79.40